createdAt,value
2024-03-27T00:05:04.233Z,100.00
2024-03-27T00:10:44.957Z,100.00
2024-03-27T00:16:25.353Z,100.00
2024-03-27T00:22:06.070Z,100.00
2024-03-27T00:27:46.281Z,100.00
2024-03-27T00:33:26.729Z,100.00
2024-03-27T00:39:07.477Z,100.00
2024-03-27T00:44:47.728Z,100.00
2024-03-27T00:50:27.949Z,100.00
2024-03-27T00:56:08.384Z,100.00
2024-03-27T01:05:16.297Z,100.00
2024-03-27T01:10:57.021Z,100.00
2024-03-27T01:16:37.105Z,100.00
2024-03-27T01:22:18.045Z,100.00
2024-03-27T01:27:58.136Z,100.00
2024-03-27T01:33:38.526Z,100.00
2024-03-27T01:39:19.145Z,100.00
2024-03-27T01:44:59.287Z,100.00
2024-03-27T01:50:40.736Z,100.00
2024-03-27T01:56:21.317Z,100.00
2024-03-27T02:02:03.345Z,100.00
2024-03-27T02:07:45.658Z,100.00
2024-03-27T02:13:26.143Z,100.00
2024-03-27T02:19:06.095Z,100.00
2024-03-27T02:24:52.476Z,100.00
2024-03-27T02:30:32.807Z,100.00
2024-03-27T02:36:12.637Z,100.00
2024-03-27T02:41:52.262Z,100.00
2024-03-27T02:47:32.694Z,100.00
2024-03-27T02:53:12.938Z,100.00
2024-03-27T02:58:52.472Z,100.00
2024-03-27T03:04:34.618Z,100.00
2024-03-27T03:10:15.309Z,100.00
2024-03-27T03:15:55.627Z,100.00
2024-03-27T03:21:36.233Z,100.00
2024-03-27T03:27:19.465Z,100.00
2024-03-27T03:32:59.026Z,100.00
2024-03-27T03:38:38.981Z,100.00
2024-03-27T03:44:20.682Z,100.00
2024-03-27T03:50:01.601Z,100.00
2024-03-27T03:55:41.872Z,100.00
2024-03-27T04:05:18.382Z,100.00
2024-03-27T04:11:02.066Z,100.00
2024-03-27T04:16:42.075Z,100.00
2024-03-27T04:22:21.934Z,100.00
2024-03-27T04:28:02.383Z,100.00
2024-03-27T04:33:42.177Z,100.00
2024-03-27T04:39:25.602Z,100.00
2024-03-27T04:45:08.059Z,100.00
2024-03-27T05:05:53.017Z,100.00
2024-03-27T05:11:34.527Z,100.00
2024-03-27T05:17:14.584Z,100.00
2024-03-27T05:22:56.034Z,100.00
2024-03-27T05:28:36.669Z,100.00
2024-03-27T05:34:18.055Z,100.00
2024-03-27T05:39:58.076Z,100.00
2024-03-27T05:45:38.451Z,100.00
2024-03-27T05:51:18.711Z,100.00
2024-03-27T05:56:59.967Z,100.00
2024-03-27T06:05:27.209Z,100.00
2024-03-27T06:11:08.525Z,100.00
2024-03-27T06:16:49.015Z,100.00
2024-03-27T06:22:29.204Z,100.00
2024-03-27T06:28:09.647Z,100.00
2024-03-27T06:33:49.903Z,100.00
2024-03-27T06:39:30.120Z,100.00
2024-03-27T06:45:17.102Z,100.00
2024-03-27T06:50:53.887Z,100.00
2024-03-27T06:56:33.832Z,100.00
2024-03-27T07:02:14.186Z,100.00
2024-03-27T07:07:54.429Z,100.00
2024-03-27T07:13:37.324Z,100.00
2024-03-27T07:19:16.722Z,100.00
2024-03-27T07:24:56.972Z,100.00
2024-03-27T07:30:37.138Z,100.00
2024-03-27T07:36:17.420Z,100.00
2024-03-27T07:41:57.865Z,100.00
2024-03-27T07:47:38.749Z,100.00
2024-03-27T07:53:18.695Z,100.00
2024-03-27T07:58:58.373Z,100.00
2024-03-27T08:04:38.827Z,100.00
2024-03-27T08:10:19.454Z,100.00
2024-03-27T08:16:03.599Z,100.00
2024-03-27T08:21:44.375Z,100.00
2024-03-27T08:27:24.301Z,100.00
2024-03-27T08:33:05.551Z,100.00
2024-03-27T08:38:46.027Z,100.00
2024-03-27T08:44:26.810Z,100.00
2024-03-27T08:50:09.428Z,99.77
2024-03-27T08:55:49.563Z,98.73
2024-03-27T09:01:30.062Z,97.94
2024-03-27T09:07:10.273Z,97.42
2024-03-27T09:12:50.490Z,96.90
2024-03-27T09:18:30.918Z,96.53
2024-03-27T09:24:11.021Z,96.19
2024-03-27T09:29:55.963Z,95.83
2024-03-27T09:35:35.508Z,95.77
2024-03-27T09:41:16.108Z,94.97
2024-03-27T09:46:59.922Z,93.75
2024-03-27T09:52:40.537Z,92.99
2024-03-27T09:58:20.950Z,92.51
2024-03-27T10:05:24.324Z,92.80
2024-03-27T10:11:05.224Z,91.76
2024-03-27T10:16:45.303Z,90.49
2024-03-27T10:22:27.717Z,88.76
2024-03-27T10:28:11.243Z,88.00
2024-03-27T10:33:51.882Z,87.68
2024-03-27T10:39:35.645Z,87.23
2024-03-27T10:45:16.329Z,86.72
2024-03-27T10:50:58.401Z,85.92
2024-03-27T10:56:39.205Z,84.47
2024-03-27T11:02:20.086Z,82.96
2024-03-27T11:08:00.554Z,81.94
2024-03-27T11:13:51.663Z,81.16
2024-03-27T11:19:37.765Z,80.66
2024-03-27T11:25:26.981Z,80.02
2024-03-27T11:31:07.408Z,79.98
2024-03-27T11:36:48.219Z,80.06
2024-03-27T11:42:30.321Z,79.59
2024-03-27T11:48:10.689Z,79.34
2024-03-27T11:53:52.282Z,79.39
2024-03-27T11:59:32.497Z,79.39
2024-03-27T12:05:13.203Z,78.45
2024-03-27T12:10:53.333Z,77.58
2024-03-27T12:16:33.765Z,77.81
2024-03-27T12:22:13.829Z,76.56
2024-03-27T12:27:54.348Z,75.85
2024-03-27T12:33:34.986Z,75.36
2024-03-27T12:39:15.664Z,74.45
2024-03-27T12:44:55.928Z,74.36
2024-03-27T12:50:36.518Z,72.91
2024-03-27T12:56:17.169Z,72.18
2024-03-27T13:05:25.282Z,71.89
2024-03-27T13:11:05.517Z,71.32
2024-03-27T13:16:45.476Z,70.58
2024-03-27T13:22:25.526Z,69.28
2024-03-27T13:28:06.588Z,65.64
2024-03-27T13:33:48.288Z,62.46
2024-03-27T13:39:28.656Z,61.79
2024-03-27T13:45:09.054Z,61.42
2024-03-27T13:50:49.253Z,61.52
2024-03-27T13:56:29.778Z,61.32
2024-03-27T14:02:11.131Z,61.74
2024-03-27T14:07:51.756Z,60.38
2024-03-27T14:13:31.749Z,59.57
2024-03-27T14:19:11.751Z,60.84
2024-03-27T14:24:52.839Z,62.79
2024-03-27T14:30:33.358Z,63.40
2024-03-27T14:36:14.294Z,63.69
2024-03-27T14:41:54.559Z,63.11
2024-03-27T14:47:34.645Z,63.87
2024-03-27T14:53:15.041Z,64.75
2024-03-27T14:58:55.327Z,65.47
2024-03-27T15:04:35.650Z,65.97
2024-03-27T15:10:16.131Z,66.92
2024-03-27T15:15:56.913Z,67.51
2024-03-27T15:21:37.163Z,67.56
2024-03-27T15:27:17.523Z,68.10
2024-03-27T15:32:57.846Z,69.60
2024-03-27T15:38:38.240Z,70.58
2024-03-27T15:44:18.785Z,71.18
2024-03-27T15:50:01.072Z,71.34
2024-03-27T15:55:40.881Z,72.74
2024-03-27T16:05:29.924Z,75.20
2024-03-27T16:11:10.533Z,76.20
2024-03-27T16:16:51.627Z,77.37
2024-03-27T16:22:32.081Z,78.24
2024-03-27T16:28:12.216Z,78.88
2024-03-27T16:33:54.444Z,79.65
2024-03-27T16:39:34.356Z,80.09
2024-03-27T16:45:15.132Z,80.82
2024-03-27T16:50:57.805Z,81.35
2024-03-27T16:56:37.330Z,81.92
2024-03-27T17:02:17.350Z,82.59
2024-03-27T17:07:57.948Z,83.23
2024-03-27T17:13:39.662Z,84.19
2024-03-27T17:19:20.062Z,85.05
2024-03-27T17:25:02.300Z,85.69
2024-03-27T17:30:42.734Z,86.19
2024-03-27T17:36:22.937Z,86.95
2024-03-27T17:42:03.008Z,87.59
2024-03-27T17:47:43.259Z,88.41
2024-03-27T17:53:24.410Z,89.10
2024-03-27T17:59:04.233Z,89.86
2024-03-27T18:04:44.288Z,90.36
2024-03-27T18:10:24.411Z,90.97
2024-03-27T18:16:07.292Z,91.44
2024-03-27T18:21:47.193Z,92.11
2024-03-27T18:27:27.383Z,92.51
2024-03-27T18:33:11.296Z,92.67
2024-03-27T18:38:51.534Z,93.15
2024-03-27T18:44:32.249Z,93.85
2024-03-27T18:50:12.656Z,94.25
2024-03-27T18:55:52.966Z,94.74
2024-03-27T19:05:29.441Z,95.56
2024-03-27T19:11:19.658Z,95.53
2024-03-27T19:16:52.862Z,96.01
2024-03-27T19:22:32.498Z,96.57
2024-03-27T19:28:13.198Z,96.81
2024-03-27T19:33:53.203Z,97.33
2024-03-27T19:39:34.084Z,97.40
2024-03-27T19:45:14.094Z,97.47
2024-03-27T19:50:54.534Z,97.88
2024-03-27T19:56:35.135Z,97.92
2024-03-27T20:02:16.827Z,97.93
2024-03-27T20:07:56.901Z,98.40
2024-03-27T20:13:37.284Z,98.67
2024-03-27T20:19:17.449Z,98.99
2024-03-27T20:24:58.044Z,99.66
2024-03-27T20:30:38.594Z,100.00
2024-03-27T20:36:18.344Z,100.00
2024-03-27T20:41:58.906Z,100.00
2024-03-27T20:47:38.958Z,100.00
2024-03-27T20:53:19.329Z,100.00
2024-03-27T20:58:58.928Z,100.00
2024-03-27T21:04:39.425Z,100.00
2024-03-27T21:10:21.874Z,100.00
2024-03-27T21:16:02.282Z,100.00
2024-03-27T21:21:42.873Z,100.00
2024-03-27T21:27:23.099Z,100.00
2024-03-27T21:33:04.316Z,100.00
2024-03-27T21:38:44.454Z,100.00
2024-03-27T21:44:24.709Z,100.00
2024-03-27T21:50:08.907Z,100.00
2024-03-27T21:55:49.482Z,100.00
2024-03-27T22:05:15.949Z,100.00
2024-03-27T22:10:56.593Z,100.00
2024-03-27T22:16:37.667Z,100.00
2024-03-27T22:22:17.683Z,100.00
2024-03-27T22:27:58.362Z,100.00
2024-03-27T22:33:38.726Z,100.00
2024-03-27T22:39:19.361Z,100.00
2024-03-27T22:44:59.621Z,100.00
2024-03-27T22:50:39.771Z,100.00
2024-03-27T22:56:19.900Z,100.00
2024-03-27T23:02:00.059Z,100.00
2024-03-27T23:07:45.339Z,100.00
2024-03-27T23:13:25.767Z,100.00
2024-03-27T23:19:06.140Z,100.00
2024-03-27T23:24:46.268Z,100.00
2024-03-27T23:30:26.635Z,100.00
2024-03-27T23:36:07.288Z,100.00
2024-03-27T23:41:49.092Z,100.00
2024-03-27T23:47:29.388Z,100.00
2024-03-27T23:53:09.345Z,100.00
2024-03-27T23:58:49.732Z,100.00
